createdAt,value
2019-05-10T00:00:05.475Z,9.27
2019-05-10T00:01:02.524Z,9.26
2019-05-10T00:01:59.517Z,9.26
2019-05-10T00:02:56.504Z,9.26
2019-05-10T00:03:53.520Z,9.25
2019-05-10T00:04:50.493Z,9.27
2019-05-10T00:05:47.562Z,9.28
2019-05-10T00:06:44.482Z,9.27
2019-05-10T00:07:41.482Z,9.27
2019-05-10T00:08:38.537Z,9.23
2019-05-10T00:09:35.473Z,9.22
2019-05-10T00:10:32.497Z,9.19
2019-05-10T00:11:29.564Z,9.22
2019-05-10T00:12:26.609Z,9.22
2019-05-10T00:13:23.601Z,9.22
2019-05-10T00:14:20.577Z,9.18
2019-05-10T00:15:17.676Z,9.22
2019-05-10T00:16:14.613Z,9.23
2019-05-10T00:17:11.549Z,9.27
2019-05-10T00:18:08.688Z,9.27
2019-05-10T00:19:05.634Z,9.27
2019-05-10T00:20:02.648Z,9.26
2019-05-10T00:20:59.639Z,9.26
2019-05-10T00:21:56.635Z,9.28
2019-05-10T00:22:53.692Z,9.31
2019-05-10T00:23:50.611Z,9.32
2019-05-10T00:25:02.157Z,9.35
2019-05-10T00:25:44.700Z,9.36
2019-05-10T00:26:41.754Z,9.36
2019-05-10T00:27:38.666Z,9.38
2019-05-10T00:28:35.691Z,9.40
2019-05-10T00:29:32.729Z,9.43
2019-05-10T00:30:29.786Z,9.44
2019-05-10T00:31:26.708Z,9.44
2019-05-10T00:32:23.754Z,9.44
2019-05-10T00:33:20.815Z,9.43
2019-05-10T00:34:17.810Z,9.43
2019-05-10T00:35:14.839Z,9.44
2019-05-10T00:36:11.827Z,9.47
2019-05-10T00:37:08.827Z,9.47
2019-05-10T00:38:05.815Z,9.52
2019-05-10T00:39:02.793Z,9.56
2019-05-10T00:39:59.857Z,9.59
2019-05-10T00:40:56.969Z,9.60
2019-05-10T00:41:53.848Z,9.63
2019-05-10T00:42:50.840Z,9.63
2019-05-10T00:43:47.887Z,9.63
2019-05-10T00:44:44.826Z,9.65
2019-05-10T00:45:41.850Z,9.63
2019-05-10T00:46:38.902Z,9.63
2019-05-10T00:47:35.925Z,9.60
2019-05-10T00:48:32.860Z,9.55
2019-05-10T00:49:30.004Z,9.50
2019-05-10T00:50:26.956Z,9.47
2019-05-10T00:51:23.988Z,9.47
2019-05-10T00:52:20.909Z,9.47
2019-05-10T00:53:17.994Z,9.46
2019-05-10T00:54:14.983Z,9.43
2019-05-10T00:55:19.029Z,9.40
2019-05-10T00:56:08.976Z,9.38
2019-05-10T00:57:05.993Z,9.35
2019-05-10T00:58:03.076Z,9.31
2019-05-10T00:58:59.986Z,9.28
2019-05-10T00:59:57.097Z,9.28
2019-05-10T01:00:54.086Z,9.27
2019-05-10T01:01:51.078Z,9.22
2019-05-10T01:02:48.121Z,9.18
2019-05-10T01:03:45.062Z,9.18
2019-05-10T01:04:42.105Z,9.18
2019-05-10T01:05:39.032Z,9.21
2019-05-10T01:06:36.151Z,9.23
2019-05-10T01:07:33.100Z,9.34
2019-05-10T01:08:30.136Z,9.38
2019-05-10T01:09:27.081Z,9.42
2019-05-10T01:10:24.125Z,9.39
2019-05-10T01:11:21.242Z,9.34
2019-05-10T01:12:18.195Z,9.27
2019-05-10T01:13:15.122Z,9.19
2019-05-10T01:14:12.196Z,9.11
2019-05-10T01:15:09.214Z,9.02
2019-05-10T01:16:06.146Z,8.96
2019-05-10T01:17:03.165Z,8.93
2019-05-10T01:18:00.204Z,8.93
2019-05-10T01:18:57.241Z,8.93
2019-05-10T01:19:54.240Z,8.97
2019-05-10T01:20:51.234Z,8.97
2019-05-10T01:21:48.265Z,8.97
2019-05-10T01:22:45.288Z,9.03
2019-05-10T01:24:39.282Z,9.10
2019-05-10T01:25:36.300Z,9.14
2019-05-10T01:26:33.246Z,9.17
2019-05-10T01:27:30.320Z,9.18
2019-05-10T01:28:27.357Z,9.15
2019-05-10T01:29:24.381Z,9.13
2019-05-10T01:30:21.301Z,9.07
2019-05-10T01:31:18.323Z,9.03
2019-05-10T01:32:15.504Z,9.00
2019-05-10T01:33:12.432Z,8.96
2019-05-10T01:34:09.329Z,8.92
2019-05-10T01:35:06.381Z,8.89
2019-05-10T01:36:03.436Z,8.85
2019-05-10T01:37:00.363Z,8.84
2019-05-10T01:37:57.376Z,8.84
2019-05-10T01:38:54.417Z,8.84
2019-05-10T01:39:51.500Z,8.84
2019-05-10T01:40:48.398Z,8.88
2019-05-10T01:41:45.525Z,8.90
2019-05-10T01:42:42.464Z,8.93
2019-05-10T01:43:39.498Z,8.96
2019-05-10T01:44:36.521Z,8.96
2019-05-10T01:45:33.520Z,8.96
2019-05-10T01:46:30.644Z,8.96
2019-05-10T01:47:27.465Z,8.92
2019-05-10T01:48:24.593Z,8.92
2019-05-10T01:49:21.521Z,8.88
2019-05-10T01:50:18.621Z,8.84
2019-05-10T01:51:15.539Z,8.81
2019-05-10T01:52:12.554Z,8.77
2019-05-10T01:53:09.567Z,8.75
2019-05-10T01:54:06.604Z,8.68
2019-05-10T01:55:03.588Z,8.65
2019-05-10T01:56:00.602Z,8.64
2019-05-10T01:56:57.637Z,8.59
2019-05-10T01:57:54.651Z,8.56
2019-05-10T01:58:51.588Z,8.53
2019-05-10T01:59:48.630Z,8.51
2019-05-10T02:00:45.688Z,8.47
2019-05-10T02:01:42.630Z,8.44
2019-05-10T02:02:39.667Z,8.39
2019-05-10T02:03:36.672Z,8.38
2019-05-10T02:04:33.719Z,8.35
2019-05-10T02:05:30.736Z,8.31
2019-05-10T02:06:27.723Z,8.27
2019-05-10T02:07:24.925Z,8.25
2019-05-10T02:08:21.700Z,8.22
2019-05-10T02:09:18.953Z,8.18
2019-05-10T02:10:15.736Z,8.15
2019-05-10T02:11:12.838Z,8.13
2019-05-10T02:12:09.811Z,8.10
2019-05-10T02:13:06.785Z,8.06
2019-05-10T02:14:03.777Z,8.05
2019-05-10T02:15:00.864Z,8.01
2019-05-10T02:15:57.771Z,7.98
2019-05-10T02:16:54.795Z,7.94
2019-05-10T02:17:51.955Z,7.96
2019-05-10T02:18:48.864Z,7.96
2019-05-10T02:19:45.841Z,7.94
2019-05-10T02:20:42.833Z,7.94
2019-05-10T02:21:39.925Z,7.94
2019-05-10T02:22:36.833Z,8.02
2019-05-10T02:23:33.845Z,8.06
2019-05-10T02:24:30.891Z,8.09
2019-05-10T02:25:27.920Z,8.10
2019-05-10T02:26:24.859Z,8.14
2019-05-10T02:27:21.895Z,8.17
2019-05-10T02:28:18.958Z,8.18
2019-05-10T02:29:16.015Z,8.21
2019-05-10T02:30:12.905Z,8.27
2019-05-10T02:31:09.953Z,8.31
2019-05-10T02:32:06.978Z,8.35
2019-05-10T02:33:03.938Z,8.38
2019-05-10T02:34:00.952Z,8.42
2019-05-10T02:34:58.027Z,8.52
2019-05-10T02:35:55.122Z,8.59
2019-05-10T02:36:51.960Z,8.61
2019-05-10T02:37:49.017Z,8.64
2019-05-10T02:38:46.088Z,8.71
2019-05-10T02:39:43.076Z,8.77
2019-05-10T02:40:40.065Z,8.85
2019-05-10T02:41:37.066Z,8.94
2019-05-10T02:42:34.083Z,9.03
2019-05-10T02:43:31.108Z,9.10
2019-05-10T02:44:28.106Z,9.13
2019-05-10T02:45:25.134Z,9.13
2019-05-10T02:46:22.131Z,9.13
2019-05-10T02:47:19.167Z,9.13
2019-05-10T02:48:16.118Z,9.10
2019-05-10T02:49:13.192Z,9.10
2019-05-10T02:50:10.180Z,9.10
2019-05-10T02:51:07.140Z,9.06
2019-05-10T02:52:04.192Z,9.02
2019-05-10T02:53:01.209Z,9.02
2019-05-10T02:53:58.131Z,9.05
2019-05-10T02:54:55.169Z,9.01
2019-05-10T02:55:52.210Z,9.03
2019-05-10T02:56:49.262Z,9.02
2019-05-10T02:57:46.210Z,9.00
2019-05-10T02:58:43.308Z,8.93
2019-05-10T02:59:40.247Z,8.98
2019-05-10T03:00:37.294Z,8.98
2019-05-10T03:01:34.323Z,8.97
2019-05-10T03:02:31.297Z,8.93
2019-05-10T03:03:28.316Z,8.93
2019-05-10T03:04:25.234Z,8.89
2019-05-10T03:05:22.308Z,8.82
2019-05-10T03:06:19.352Z,8.77
2019-05-10T03:07:16.366Z,8.71
2019-05-10T03:08:13.300Z,8.71
2019-05-10T03:09:10.325Z,8.73
2019-05-10T03:10:07.389Z,8.72
2019-05-10T03:11:04.428Z,8.69
2019-05-10T03:12:01.367Z,8.64
2019-05-10T03:12:58.386Z,8.68
2019-05-10T03:13:55.424Z,8.75
2019-05-10T03:14:52.481Z,8.81
2019-05-10T03:15:49.376Z,8.84
2019-05-10T03:16:46.411Z,8.77
2019-05-10T03:17:43.547Z,8.75
2019-05-10T03:18:40.484Z,8.76
2019-05-10T03:19:37.430Z,8.71
2019-05-10T03:20:34.494Z,8.69
2019-05-10T03:21:31.503Z,8.76
2019-05-10T03:22:28.452Z,8.77
2019-05-10T03:23:25.515Z,8.81
2019-05-10T03:24:27.405Z,8.85
2019-05-10T03:25:19.579Z,8.89
2019-05-10T03:26:16.483Z,8.93
2019-05-10T03:27:13.513Z,8.96
2019-05-10T03:28:10.558Z,8.96
2019-05-10T03:29:07.587Z,8.94
2019-05-10T03:30:04.528Z,8.93
2019-05-10T03:31:01.560Z,8.88
2019-05-10T03:31:58.598Z,8.89
2019-05-10T03:32:55.581Z,8.92
2019-05-10T03:33:56.485Z,8.93
2019-05-10T03:34:49.697Z,8.96
2019-05-10T03:35:46.554Z,8.97
2019-05-10T03:36:43.630Z,8.98
2019-05-10T03:37:40.647Z,8.96
2019-05-10T03:38:37.656Z,8.94
2019-05-10T03:39:34.683Z,8.93
2019-05-10T03:40:31.632Z,8.93
2019-05-10T03:41:28.676Z,8.94
2019-05-10T03:42:25.704Z,8.94
2019-05-10T03:43:22.628Z,8.96
2019-05-10T03:44:19.769Z,8.97
2019-05-10T03:45:16.714Z,9.00
2019-05-10T03:46:13.761Z,9.02
2019-05-10T03:47:10.724Z,9.06
2019-05-10T03:48:07.723Z,9.06
2019-05-10T03:49:04.782Z,9.10
2019-05-10T03:50:01.726Z,9.10
2019-05-10T03:50:58.755Z,9.10
2019-05-10T03:51:55.778Z,9.10
2019-05-10T03:52:52.944Z,9.09
2019-05-10T03:53:49.835Z,9.09
2019-05-10T03:54:46.804Z,9.06
2019-05-10T03:55:43.857Z,9.06
2019-05-10T03:56:40.856Z,9.05
2019-05-10T03:57:37.792Z,9.03
2019-05-10T03:58:34.844Z,9.02
2019-05-10T03:59:31.960Z,9.03
2019-05-10T04:00:28.820Z,9.05
2019-05-10T04:01:25.897Z,9.03
2019-05-10T04:02:22.913Z,9.01
2019-05-10T04:03:19.927Z,8.98
2019-05-10T04:04:16.876Z,8.96
2019-05-10T04:05:13.978Z,8.94
2019-05-10T04:06:10.928Z,8.90
2019-05-10T04:07:08.002Z,8.85
2019-05-10T04:08:04.916Z,8.82
2019-05-10T04:09:01.934Z,8.82
2019-05-10T04:09:59.119Z,8.86
2019-05-10T04:10:56.010Z,8.86
2019-05-10T04:11:52.944Z,8.86
2019-05-10T04:12:50.035Z,8.85
2019-05-10T04:13:47.109Z,8.85
2019-05-10T04:14:43.952Z,8.82
2019-05-10T04:15:41.012Z,8.82
2019-05-10T04:16:38.074Z,8.81
2019-05-10T04:17:35.066Z,8.82
2019-05-10T04:18:32.017Z,8.80
2019-05-10T04:19:29.047Z,8.77
2019-05-10T04:20:26.100Z,8.76
2019-05-10T04:21:23.115Z,8.76
2019-05-10T04:22:20.099Z,8.76
2019-05-10T04:23:17.087Z,8.76
2019-05-10T04:24:14.162Z,8.77
2019-05-10T04:25:11.150Z,8.80
2019-05-10T04:26:08.117Z,8.80
2019-05-10T04:27:05.137Z,8.80
2019-05-10T04:28:02.177Z,8.79
2019-05-10T04:28:59.130Z,8.76
2019-05-10T04:29:56.191Z,8.75
2019-05-10T04:30:53.206Z,8.69
2019-05-10T04:31:50.229Z,8.68
2019-05-10T04:32:47.156Z,8.64
2019-05-10T04:33:44.189Z,8.64
2019-05-10T04:34:41.227Z,8.63
2019-05-10T04:35:38.202Z,8.60
2019-05-10T04:36:35.205Z,8.59
2019-05-10T04:37:32.245Z,8.57
2019-05-10T04:38:29.271Z,8.56
2019-05-10T04:39:26.253Z,8.52
2019-05-10T04:40:23.259Z,8.52
2019-05-10T04:41:20.302Z,8.51
2019-05-10T04:42:17.324Z,8.50
2019-05-10T04:43:14.259Z,8.47
2019-05-10T04:44:11.310Z,8.44
2019-05-10T04:45:08.470Z,8.40
2019-05-10T04:46:05.399Z,8.39
2019-05-10T04:47:02.346Z,8.35
2019-05-10T04:47:59.482Z,8.30
2019-05-10T04:48:56.410Z,8.25
2019-05-10T04:49:53.365Z,8.21
2019-05-10T04:50:50.448Z,8.15
2019-05-10T04:51:47.394Z,8.17
2019-05-10T04:52:44.428Z,8.14
2019-05-10T04:53:41.364Z,8.13
2019-05-10T04:54:38.413Z,8.10
2019-05-10T04:55:35.437Z,8.06
2019-05-10T04:56:32.480Z,8.06
2019-05-10T04:57:29.452Z,8.09
2019-05-10T04:58:26.448Z,8.09
2019-05-10T04:59:23.497Z,8.06
2019-05-10T05:00:20.466Z,8.06
2019-05-10T05:01:17.473Z,8.10
2019-05-10T05:02:14.535Z,8.14
2019-05-10T05:03:11.537Z,8.25
2019-05-10T05:04:08.519Z,8.35
2019-05-10T05:05:05.616Z,8.47
2019-05-10T05:06:02.571Z,8.55
2019-05-10T05:06:59.526Z,8.60
2019-05-10T05:07:56.522Z,8.61
2019-05-10T05:08:53.562Z,8.64
2019-05-10T05:09:50.699Z,8.72
2019-05-10T05:10:47.527Z,8.79
2019-05-10T05:11:44.655Z,8.82
2019-05-10T05:12:41.600Z,8.86
2019-05-10T05:13:38.543Z,8.88
2019-05-10T05:14:35.579Z,8.89
2019-05-10T05:15:32.703Z,8.93
2019-05-10T05:16:29.684Z,8.97
2019-05-10T05:17:26.592Z,9.01
2019-05-10T05:18:23.621Z,9.03
2019-05-10T05:19:20.772Z,9.10
2019-05-10T05:20:17.696Z,9.13
2019-05-10T05:21:14.723Z,9.13
2019-05-10T05:22:11.769Z,9.17
2019-05-10T05:23:08.707Z,9.21
2019-05-10T05:24:05.742Z,9.22
2019-05-10T05:25:03.821Z,9.23
2019-05-10T05:25:59.807Z,9.25
2019-05-10T05:26:56.775Z,9.26
2019-05-10T05:28:06.827Z,9.27
2019-05-10T05:28:50.749Z,9.25
2019-05-10T05:29:47.773Z,9.21
2019-05-10T05:30:44.822Z,9.18
2019-05-10T05:31:41.842Z,9.17
2019-05-10T05:32:44.458Z,9.14
2019-05-10T05:33:35.848Z,9.10
2019-05-10T05:34:32.848Z,9.10
2019-05-10T05:35:29.805Z,9.14
2019-05-10T05:36:26.823Z,9.14
2019-05-10T05:37:23.872Z,9.18
2019-05-10T05:38:20.803Z,9.22
2019-05-10T05:39:17.875Z,9.27
2019-05-10T05:40:14.906Z,9.32
2019-05-10T05:41:11.919Z,9.35
2019-05-10T05:42:08.942Z,9.38
2019-05-10T05:43:08.092Z,9.43
2019-05-10T05:44:02.917Z,9.46
2019-05-10T05:45:00.058Z,9.50
2019-05-10T05:45:56.898Z,9.55
2019-05-10T05:46:53.998Z,9.56
2019-05-10T05:47:51.146Z,9.65
2019-05-10T05:48:51.303Z,9.72
2019-05-10T05:49:44.944Z,9.81
2019-05-10T05:50:41.927Z,9.84
2019-05-10T05:51:39.139Z,9.92
2019-05-10T05:52:35.968Z,9.98
2019-05-10T05:53:35.893Z,9.98
2019-05-10T05:54:30.062Z,10.03
2019-05-10T05:55:30.647Z,10.02
2019-05-10T05:56:24.032Z,10.01
2019-05-10T05:57:22.234Z,9.98
2019-05-10T05:58:26.470Z,9.94
2019-05-10T05:59:17.507Z,9.92
2019-05-10T06:00:12.092Z,9.90
2019-05-10T06:01:09.103Z,9.92
2019-05-10T06:02:07.309Z,9.89
2019-05-10T06:03:03.179Z,9.86
2019-05-10T06:04:05.862Z,9.84
2019-05-10T06:04:57.197Z,9.81
2019-05-10T06:05:54.165Z,9.77
2019-05-10T06:06:53.744Z,9.75
2019-05-10T06:07:51.950Z,9.71
2019-05-10T06:08:45.269Z,9.72
2019-05-10T06:09:42.117Z,9.71
2019-05-10T06:10:39.190Z,9.68
2019-05-10T06:11:37.836Z,9.69
2019-05-10T06:12:33.313Z,9.71
2019-05-10T06:13:32.232Z,9.69
2019-05-10T06:14:27.230Z,9.69
2019-05-10T06:15:29.113Z,9.68
2019-05-10T06:16:22.313Z,9.67
2019-05-10T06:17:18.355Z,9.67
2019-05-10T06:18:15.281Z,9.64
2019-05-10T06:19:12.410Z,9.65
2019-05-10T06:20:09.317Z,9.65
2019-05-10T06:21:06.355Z,9.65
2019-05-10T06:22:04.392Z,9.64
2019-05-10T06:23:06.548Z,9.64
2019-05-10T06:23:59.373Z,9.64
2019-05-10T06:24:54.374Z,9.67
2019-05-10T06:25:51.346Z,9.69
2019-05-10T06:26:48.480Z,9.72
2019-05-10T06:27:45.362Z,9.76
2019-05-10T06:28:58.223Z,9.76
2019-05-10T06:29:42.632Z,9.76
2019-05-10T06:30:36.555Z,9.73
2019-05-10T06:31:33.364Z,9.72
2019-05-10T06:32:30.485Z,9.69
2019-05-10T06:33:27.479Z,9.75
2019-05-10T06:34:24.514Z,9.85
2019-05-10T06:35:21.405Z,9.90
2019-05-10T06:36:18.445Z,9.96
2019-05-10T06:37:15.479Z,10.02
2019-05-10T06:38:12.451Z,10.10
2019-05-10T06:39:09.477Z,10.22
2019-05-10T06:40:06.548Z,10.30
2019-05-10T06:41:03.535Z,10.38
2019-05-10T06:42:00.557Z,10.47
2019-05-10T06:42:57.521Z,10.56
2019-05-10T06:43:54.549Z,10.63
2019-05-10T06:44:51.561Z,10.67
2019-05-10T06:45:52.499Z,10.72
2019-05-10T06:46:45.547Z,10.77
2019-05-10T06:47:47.611Z,10.85
2019-05-10T06:48:39.609Z,10.96
2019-05-10T06:49:41.023Z,11.03
2019-05-10T06:50:33.602Z,11.10
2019-05-10T06:51:30.631Z,11.13
2019-05-10T06:52:29.572Z,11.19
2019-05-10T06:53:24.733Z,11.26
2019-05-10T06:54:21.668Z,11.30
2019-05-10T06:55:18.631Z,11.32
2019-05-10T06:56:15.667Z,11.35
2019-05-10T06:57:17.660Z,11.35
2019-05-10T06:58:09.613Z,11.38
2019-05-10T06:59:13.452Z,11.46
2019-05-10T07:00:06.500Z,11.53
2019-05-10T07:01:00.700Z,11.60
2019-05-10T07:01:57.644Z,11.64
2019-05-10T07:02:54.714Z,11.68
2019-05-10T07:03:51.732Z,11.73
2019-05-10T07:04:48.777Z,11.77
2019-05-10T07:05:45.786Z,11.79
2019-05-10T07:06:42.759Z,11.77
2019-05-10T07:07:44.586Z,11.81
2019-05-10T07:08:44.273Z,11.92
2019-05-10T07:10:00.527Z,12.09
2019-05-10T07:10:33.678Z,12.11
2019-05-10T07:11:27.906Z,12.15
2019-05-10T07:12:24.847Z,12.31
2019-05-10T07:13:21.823Z,12.56
2019-05-10T07:14:25.377Z,12.72
2019-05-10T07:15:16.057Z,13.03
2019-05-10T07:16:14.984Z,13.44
2019-05-10T07:17:09.808Z,13.65
2019-05-10T07:18:06.862Z,13.71
2019-05-10T07:19:03.992Z,13.88
2019-05-10T07:20:00.887Z,14.05
2019-05-10T07:21:00.733Z,13.97
2019-05-10T07:21:54.949Z,13.68
2019-05-10T07:22:52.083Z,13.60
2019-05-10T07:23:48.930Z,13.77
2019-05-10T07:24:45.941Z,13.75
2019-05-10T07:25:43.617Z,13.73
2019-05-10T07:26:39.992Z,13.72
2019-05-10T07:27:38.581Z,13.59
2019-05-10T07:28:34.073Z,13.44
2019-05-10T07:29:41.949Z,13.44
2019-05-10T07:30:27.979Z,13.46
2019-05-10T07:31:25.019Z,13.53
2019-05-10T07:32:24.432Z,13.39
2019-05-10T07:33:19.052Z,13.23
2019-05-10T07:34:17.595Z,13.27
2019-05-10T07:35:13.053Z,13.31
2019-05-10T07:36:14.837Z,13.38
2019-05-10T07:37:07.036Z,13.50
2019-05-10T07:38:04.086Z,13.55
2019-05-10T07:39:02.819Z,13.73
2019-05-10T07:39:58.203Z,14.01
2019-05-10T07:40:55.064Z,14.28
2019-05-10T07:41:52.135Z,14.59
2019-05-10T07:42:49.227Z,14.73
2019-05-10T07:43:48.242Z,14.84
2019-05-10T07:44:46.687Z,14.93
2019-05-10T07:45:40.152Z,14.92
2019-05-10T07:46:40.224Z,15.10
2019-05-10T07:47:34.169Z,15.25
2019-05-10T07:48:31.182Z,15.05
2019-05-10T07:49:30.282Z,15.17
2019-05-10T07:50:25.307Z,15.30
2019-05-10T07:51:22.847Z,15.36
2019-05-10T07:52:19.192Z,15.44
2019-05-10T07:53:22.611Z,15.51
2019-05-10T07:54:13.308Z,15.50
2019-05-10T07:55:10.869Z,15.47
2019-05-10T07:56:08.011Z,15.44
2019-05-10T07:57:04.189Z,15.55
2019-05-10T07:58:04.919Z,15.60
2019-05-10T07:59:00.604Z,15.81
2019-05-10T07:59:57.572Z,15.93
2019-05-10T08:00:55.811Z,16.06
2019-05-10T08:01:49.494Z,16.21
2019-05-10T08:02:55.018Z,16.68
2019-05-10T08:03:48.273Z,16.82
2019-05-10T08:04:40.387Z,16.78
2019-05-10T08:05:39.167Z,16.51
2019-05-10T08:06:44.115Z,16.63
2019-05-10T08:07:31.376Z,17.02
2019-05-10T08:08:29.597Z,17.53
2019-05-10T08:09:25.355Z,17.98
2019-05-10T08:10:22.402Z,18.47
2019-05-10T08:11:19.521Z,18.79
2019-05-10T08:12:19.278Z,18.77
2019-05-10T08:13:15.408Z,18.44
2019-05-10T08:14:11.366Z,18.68
2019-05-10T08:15:08.576Z,19.07
2019-05-10T08:16:05.546Z,19.45
2019-05-10T08:17:05.820Z,19.60
2019-05-10T08:17:58.729Z,19.70
2019-05-10T08:19:00.509Z,19.88
2019-05-10T08:19:52.472Z,19.92
2019-05-10T08:20:56.673Z,19.97
2019-05-10T08:21:48.822Z,20.07
2019-05-10T08:22:46.162Z,19.88
2019-05-10T08:23:41.483Z,19.37
2019-05-10T08:24:37.583Z,19.20
2019-05-10T08:25:39.599Z,19.39
2019-05-10T08:26:32.772Z,19.86
2019-05-10T08:27:28.552Z,20.15
2019-05-10T08:28:27.839Z,20.63
2019-05-10T08:29:22.624Z,20.92
2019-05-10T08:30:26.322Z,20.37
2019-05-10T08:31:16.596Z,18.93
2019-05-10T08:32:13.731Z,19.19
2019-05-10T08:33:14.041Z,19.68
2019-05-10T08:34:07.630Z,19.62
2019-05-10T08:35:05.393Z,18.95
2019-05-10T08:36:05.201Z,18.20
2019-05-10T08:36:58.740Z,19.37
2019-05-10T08:37:55.750Z,20.97
2019-05-10T08:39:04.989Z,21.47
2019-05-10T08:39:55.636Z,20.04
2019-05-10T08:40:46.867Z,19.13
2019-05-10T08:41:45.809Z,18.34
2019-05-10T08:42:45.389Z,17.79
2019-05-10T08:43:39.075Z,17.22
2019-05-10T08:44:34.915Z,16.73
2019-05-10T08:45:32.494Z,16.47
2019-05-10T08:46:38.310Z,16.22
2019-05-10T08:47:27.745Z,17.15
2019-05-10T08:48:23.429Z,18.59
2019-05-10T08:49:22.002Z,20.52
2019-05-10T08:50:34.465Z,22.52
2019-05-10T08:51:13.918Z,21.70
2019-05-10T08:52:12.202Z,20.55
2019-05-10T08:53:11.141Z,19.13
2019-05-10T08:54:04.933Z,18.48
2019-05-10T08:55:02.730Z,18.54
2019-05-10T08:55:59.146Z,17.43
2019-05-10T08:57:01.377Z,16.72
2019-05-10T08:57:52.951Z,16.37
2019-05-10T08:58:49.972Z,16.07
2019-05-10T08:59:46.953Z,17.23
2019-05-10T09:00:54.339Z,16.71
2019-05-10T09:01:46.653Z,16.21
2019-05-10T09:02:38.118Z,15.98
2019-05-10T09:03:34.993Z,17.40
2019-05-10T09:04:42.003Z,17.39
2019-05-10T09:05:31.454Z,17.04
2019-05-10T09:06:25.982Z,16.64
2019-05-10T09:07:23.355Z,16.17
2019-05-10T09:08:24.324Z,15.73
2019-05-10T09:09:17.116Z,16.02
2019-05-10T09:10:14.006Z,16.03
2019-05-10T09:11:11.358Z,15.97
2019-05-10T09:12:09.369Z,15.97
2019-05-10T09:13:05.042Z,15.82
2019-05-10T09:14:03.233Z,15.72
2019-05-10T09:15:06.576Z,15.81
2019-05-10T09:15:56.927Z,15.85
2019-05-10T09:17:00.691Z,16.52
2019-05-10T09:17:52.603Z,18.88
2019-05-10T09:18:51.158Z,19.88
2019-05-10T09:19:44.389Z,18.76
2019-05-10T09:20:42.188Z,17.80
2019-05-10T09:21:41.220Z,17.12
2019-05-10T09:22:38.628Z,16.54
2019-05-10T09:23:32.643Z,16.21
2019-05-10T09:24:29.195Z,16.02
2019-05-10T09:25:29.557Z,15.81
2019-05-10T09:26:23.341Z,15.65
2019-05-10T09:27:22.313Z,16.62
2019-05-10T09:28:17.520Z,17.30
2019-05-10T09:29:14.291Z,16.60
2019-05-10T09:30:14.085Z,16.00
2019-05-10T09:31:18.839Z,15.68
2019-05-10T09:32:06.603Z,15.56
2019-05-10T09:33:08.523Z,15.46
2019-05-10T09:33:59.239Z,16.48
2019-05-10T09:34:59.906Z,16.70
2019-05-10T09:35:55.071Z,17.57
2019-05-10T09:36:52.811Z,19.79
2019-05-10T09:37:47.611Z,20.05
2019-05-10T09:38:46.305Z,19.51
2019-05-10T09:39:42.422Z,18.75
2019-05-10T09:40:42.557Z,18.18
2019-05-10T09:41:38.199Z,17.85
2019-05-10T09:42:39.390Z,17.63
2019-05-10T09:43:31.747Z,17.31
2019-05-10T09:44:26.378Z,17.06
2019-05-10T09:45:24.359Z,16.68
2019-05-10T09:46:22.769Z,16.30
2019-05-10T09:47:17.468Z,16.12
2019-05-10T09:48:14.428Z,16.04
2019-05-10T09:49:15.686Z,15.89
2019-05-10T09:50:08.483Z,15.69
2019-05-10T09:51:05.535Z,15.52
2019-05-10T09:52:04.520Z,15.40
2019-05-10T09:52:59.469Z,15.35
2019-05-10T09:53:57.613Z,15.26
2019-05-10T09:54:53.548Z,15.27
2019-05-10T09:55:55.743Z,15.22
2019-05-10T09:56:52.014Z,15.22
2019-05-10T09:57:44.584Z,15.22
2019-05-10T09:58:41.588Z,15.15
2019-05-10T09:59:38.566Z,15.15
2019-05-10T10:00:37.975Z,15.17
2019-05-10T10:01:32.644Z,15.15
2019-05-10T10:02:33.837Z,15.21
2019-05-10T10:03:29.657Z,15.22
2019-05-10T10:04:23.713Z,15.56
2019-05-10T10:05:20.693Z,15.76
2019-05-10T10:06:17.628Z,15.79
2019-05-10T10:07:18.762Z,16.50
2019-05-10T10:08:11.756Z,18.19
2019-05-10T10:09:11.160Z,18.65
2019-05-10T10:10:07.356Z,18.23
2019-05-10T10:11:13.284Z,17.79
2019-05-10T10:12:03.117Z,17.65
2019-05-10T10:12:58.322Z,17.56
2019-05-10T10:13:58.935Z,17.36
2019-05-10T10:14:50.820Z,17.19
2019-05-10T10:15:52.039Z,17.11
2019-05-10T10:16:48.955Z,17.18
2019-05-10T10:17:42.504Z,17.18
2019-05-10T10:18:38.860Z,17.01
2019-05-10T10:19:37.606Z,16.79
2019-05-10T10:20:35.812Z,16.54
2019-05-10T10:21:35.115Z,16.37
2019-05-10T10:22:27.834Z,16.29
2019-05-10T10:23:24.709Z,16.12
2019-05-10T10:24:20.873Z,15.97
2019-05-10T10:25:17.830Z,15.84
2019-05-10T10:26:18.573Z,15.72
2019-05-10T10:27:11.836Z,15.67
2019-05-10T10:28:16.872Z,15.56
2019-05-10T10:29:07.277Z,15.55
2019-05-10T10:30:06.631Z,15.60
2019-05-10T10:31:05.278Z,15.89
2019-05-10T10:31:59.014Z,15.96
2019-05-10T10:32:53.904Z,16.06
2019-05-10T10:33:58.102Z,16.25
2019-05-10T10:34:52.465Z,16.42
2019-05-10T10:35:44.928Z,16.54
2019-05-10T10:36:43.946Z,16.57
2019-05-10T10:37:38.941Z,16.54
2019-05-10T10:38:37.037Z,16.48
2019-05-10T10:39:32.969Z,16.38
2019-05-10T10:40:29.947Z,16.40
2019-05-10T10:41:31.498Z,16.45
2019-05-10T10:42:24.073Z,16.30
2019-05-10T10:43:20.927Z,16.30
2019-05-10T10:44:18.233Z,16.25
2019-05-10T10:45:17.241Z,16.20
2019-05-10T10:46:12.718Z,16.21
2019-05-10T10:47:09.005Z,16.20
2019-05-10T10:48:08.546Z,16.12
2019-05-10T10:49:05.333Z,16.07
2019-05-10T10:50:03.068Z,16.05
2019-05-10T10:50:58.663Z,16.02
2019-05-10T10:51:54.154Z,16.03
2019-05-10T10:52:51.096Z,16.02
2019-05-10T10:53:48.041Z,15.97
2019-05-10T10:54:45.153Z,16.13
2019-05-10T10:55:46.145Z,16.48
2019-05-10T10:56:39.238Z,17.25
2019-05-10T10:57:37.374Z,17.61
2019-05-10T10:58:33.197Z,17.92
2019-05-10T10:59:30.236Z,18.54
2019-05-10T11:00:27.621Z,19.04
2019-05-10T11:01:25.528Z,19.47
2019-05-10T11:02:32.537Z,20.00
2019-05-10T11:03:18.237Z,20.40
2019-05-10T11:04:16.422Z,20.79
2019-05-10T11:05:12.208Z,21.06
2019-05-10T11:06:09.213Z,21.18
2019-05-10T11:07:10.299Z,21.03
2019-05-10T11:08:03.188Z,20.56
2019-05-10T11:09:01.719Z,20.39
2019-05-10T11:10:12.266Z,20.47
2019-05-10T11:10:54.192Z,20.50
2019-05-10T11:11:51.707Z,20.51
2019-05-10T11:12:48.353Z,20.62
2019-05-10T11:13:51.232Z,20.85
2019-05-10T11:14:45.342Z,19.95
2019-05-10T11:15:41.792Z,19.42
2019-05-10T11:16:36.355Z,19.59
2019-05-10T11:17:33.446Z,19.77
2019-05-10T11:18:31.763Z,19.52
2019-05-10T11:19:27.411Z,19.20
2019-05-10T11:20:24.397Z,18.86
2019-05-10T11:21:23.456Z,18.47
2019-05-10T11:22:18.359Z,18.25
2019-05-10T11:23:16.335Z,18.07
2019-05-10T11:24:18.227Z,17.90
2019-05-10T11:25:12.470Z,17.78
2019-05-10T11:26:06.418Z,17.68
2019-05-10T11:27:07.123Z,17.57
2019-05-10T11:28:01.822Z,17.54
2019-05-10T11:28:57.479Z,18.04
2019-05-10T11:29:55.198Z,18.18
2019-05-10T11:30:51.475Z,18.48
2019-05-10T11:32:09.059Z,18.85
2019-05-10T11:32:45.566Z,18.96
2019-05-10T11:33:47.259Z,18.81
2019-05-10T11:34:39.528Z,18.72
2019-05-10T11:35:36.441Z,19.13
2019-05-10T11:36:33.525Z,19.47
2019-05-10T11:37:32.874Z,19.85
2019-05-10T11:38:27.647Z,19.87
2019-05-10T11:39:26.697Z,19.87
2019-05-10T11:40:30.489Z,20.06
2019-05-10T11:41:22.092Z,20.04
2019-05-10T11:42:15.759Z,19.68
2019-05-10T11:43:12.691Z,19.21
2019-05-10T11:44:11.966Z,18.78
2019-05-10T11:45:06.717Z,18.45
2019-05-10T11:46:03.547Z,18.04
2019-05-10T11:47:01.534Z,17.79
2019-05-10T11:47:59.726Z,17.65
2019-05-10T11:48:54.703Z,17.43
2019-05-10T11:49:51.694Z,17.19
2019-05-10T11:50:51.145Z,17.04
2019-05-10T11:51:47.953Z,16.96
2019-05-10T11:52:42.628Z,16.95
2019-05-10T11:53:41.497Z,17.00
2019-05-10T11:54:36.931Z,16.96
2019-05-10T11:55:35.717Z,16.94
2019-05-10T11:56:32.273Z,17.23
2019-05-10T11:57:27.797Z,17.76
2019-05-10T11:58:00.789Z,17.77
2019-05-10T11:58:46.065Z,17.79
2019-05-10T11:59:41.575Z,17.79
2019-05-10T12:00:37.140Z,17.75
2019-05-10T12:01:34.072Z,18.04
2019-05-10T12:02:38.309Z,18.36
2019-05-10T12:03:28.176Z,18.61
2019-05-10T12:04:36.407Z,19.29
2019-05-10T12:05:26.434Z,20.07
2019-05-10T12:06:21.318Z,20.70
2019-05-10T12:07:16.194Z,21.06
2019-05-10T12:08:13.362Z,21.20
2019-05-10T12:09:12.510Z,20.98
2019-05-10T12:11:15.692Z,20.29
2019-05-10T12:12:03.465Z,20.52
2019-05-10T12:13:08.604Z,20.73
2019-05-10T12:13:57.379Z,20.67
2019-05-10T12:14:53.987Z,20.40
2019-05-10T12:15:51.959Z,20.12
2019-05-10T12:16:46.353Z,19.87
2019-05-10T12:18:46.298Z,19.12
2019-05-10T12:19:48.681Z,18.62
2019-05-10T12:20:52.091Z,18.20
2019-05-10T12:21:33.185Z,18.38
2019-05-10T12:22:40.824Z,18.89
2019-05-10T12:23:31.147Z,19.38
2019-05-10T12:24:38.910Z,19.72
2019-05-10T12:25:37.679Z,19.95
2019-05-10T12:26:49.168Z,20.29
2019-05-10T12:26:49.212Z,19.64
2019-05-10T12:27:21.857Z,20.50
2019-05-10T12:28:10.437Z,20.72